sensor_id;sensor_type;location;lat;lon;timestamp;temperature;humidity
25436;DHT22;13363;52.772;-3.890;2022-10-19T00:01:11;15.50;99.90
25436;DHT22;13363;52.772;-3.890;2022-10-19T00:03:38;15.50;99.90
25436;DHT22;13363;52.772;-3.890;2022-10-19T00:06:36;15.40;99.90
25436;DHT22;13363;52.772;-3.890;2022-10-19T00:09:07;15.40;99.90
25436;DHT22;13363;52.772;-3.890;2022-10-19T00:11:36;15.40;99.90
25436;DHT22;13363;52.772;-3.890;2022-10-19T00:14:03;15.50;99.90
25436;DHT22;13363;52.772;-3.890;2022-10-19T00:16:32;15.50;99.90
25436;DHT22;13363;52.772;-3.890;2022-10-19T00:19:00;15.40;99.90
25436;DHT22;13363;52.772;-3.890;2022-10-19T00:21:26;15.50;99.90
25436;DHT22;13363;52.772;-3.890;2022-10-19T00:23:52;15.40;99.90
25436;DHT22;13363;52.772;-3.890;2022-10-19T00:26:17;15.40;99.90
25436;DHT22;13363;52.772;-3.890;2022-10-19T00:28:44;15.40;99.90
25436;DHT22;13363;52.772;-3.890;2022-10-19T00:31:13;15.40;99.90
25436;DHT22;13363;52.772;-3.890;2022-10-19T00:33:42;15.30;99.90
25436;DHT22;13363;52.772;-3.890;2022-10-19T00:36:21;15.40;99.90
25436;DHT22;13363;52.772;-3.890;2022-10-19T00:38:48;15.40;99.90
25436;DHT22;13363;52.772;-3.890;2022-10-19T00:41:15;15.40;99.90
25436;DHT22;13363;52.772;-3.890;2022-10-19T00:43:58;15.40;99.90
25436;DHT22;13363;52.772;-3.890;2022-10-19T00:46:26;15.40;99.90
25436;DHT22;13363;52.772;-3.890;2022-10-19T00:48:56;15.40;99.90
25436;DHT22;13363;52.772;-3.890;2022-10-19T00:51:24;15.40;99.90
25436;DHT22;13363;52.772;-3.890;2022-10-19T00:53:52;15.40;99.90
25436;DHT22;13363;52.772;-3.890;2022-10-19T00:56:17;15.40;99.90
25436;DHT22;13363;52.772;-3.890;2022-10-19T00:58:43;15.30;99.90
25436;DHT22;13363;52.772;-3.890;2022-10-19T01:01:13;15.30;99.90
25436;DHT22;13363;52.772;-3.890;2022-10-19T01:03:40;15.40;99.90
25436;DHT22;13363;52.772;-3.890;2022-10-19T01:06:06;15.30;99.90
25436;DHT22;13363;52.772;-3.890;2022-10-19T01:08:33;15.50;99.90
25436;DHT22;13363;52.772;-3.890;2022-10-19T01:14:07;15.40;99.90
25436;DHT22;13363;52.772;-3.890;2022-10-19T01:16:52;15.40;99.90
25436;DHT22;13363;52.772;-3.890;2022-10-19T01:30:49;15.40;99.90
25436;DHT22;13363;52.772;-3.890;2022-10-19T01:42:14;15.50;99.90
25436;DHT22;13363;52.772;-3.890;2022-10-19T01:47:19;15.40;99.90
25436;DHT22;13363;52.772;-3.890;2022-10-19T01:49:55;15.40;99.90
25436;DHT22;13363;52.772;-3.890;2022-10-19T01:52:24;15.40;99.90
25436;DHT22;13363;52.772;-3.890;2022-10-19T01:54:55;15.40;99.90
25436;DHT22;13363;52.772;-3.890;2022-10-19T01:57:32;15.40;99.90
25436;DHT22;13363;52.772;-3.890;2022-10-19T01:59:59;15.40;99.90
25436;DHT22;13363;52.772;-3.890;2022-10-19T02:02:34;15.50;99.90
25436;DHT22;13363;52.772;-3.890;2022-10-19T02:05:02;15.50;99.90
25436;DHT22;13363;52.772;-3.890;2022-10-19T02:07:29;15.50;99.90
25436;DHT22;13363;52.772;-3.890;2022-10-19T02:09:56;15.50;99.90
25436;DHT22;13363;52.772;-3.890;2022-10-19T02:12:23;15.50;99.90
25436;DHT22;13363;52.772;-3.890;2022-10-19T02:14:52;15.50;99.90
25436;DHT22;13363;52.772;-3.890;2022-10-19T02:17:26;15.70;99.90
25436;DHT22;13363;52.772;-3.890;2022-10-19T02:19:53;15.60;99.90
25436;DHT22;13363;52.772;-3.890;2022-10-19T02:22:20;15.60;99.90
25436;DHT22;13363;52.772;-3.890;2022-10-19T02:24:46;15.60;99.90
25436;DHT22;13363;52.772;-3.890;2022-10-19T02:27:12;15.70;99.90
25436;DHT22;13363;52.772;-3.890;2022-10-19T02:29:38;15.60;99.90
25436;DHT22;13363;52.772;-3.890;2022-10-19T02:32:05;15.50;99.90
25436;DHT22;13363;52.772;-3.890;2022-10-19T02:34:32;15.50;99.90
25436;DHT22;13363;52.772;-3.890;2022-10-19T02:36:58;15.60;99.90
25436;DHT22;13363;52.772;-3.890;2022-10-19T02:39:24;15.60;99.90
25436;DHT22;13363;52.772;-3.890;2022-10-19T02:42:02;15.60;99.90
25436;DHT22;13363;52.772;-3.890;2022-10-19T02:44:45;15.60;99.90
25436;DHT22;13363;52.772;-3.890;2022-10-19T02:47:18;15.60;99.90
25436;DHT22;13363;52.772;-3.890;2022-10-19T02:49:45;15.70;99.90
25436;DHT22;13363;52.772;-3.890;2022-10-19T02:52:13;15.60;99.90
25436;DHT22;13363;52.772;-3.890;2022-10-19T02:54:40;15.50;99.90
25436;DHT22;13363;52.772;-3.890;2022-10-19T02:57:23;15.60;99.90
25436;DHT22;13363;52.772;-3.890;2022-10-19T02:59:50;15.60;99.90
25436;DHT22;13363;52.772;-3.890;2022-10-19T03:02:17;15.70;99.90
25436;DHT22;13363;52.772;-3.890;2022-10-19T03:04:43;15.60;99.90
25436;DHT22;13363;52.772;-3.890;2022-10-19T03:07:11;15.50;99.90
25436;DHT22;13363;52.772;-3.890;2022-10-19T03:09:37;15.40;99.90
25436;DHT22;13363;52.772;-3.890;2022-10-19T03:12:03;15.40;99.90
25436;DHT22;13363;52.772;-3.890;2022-10-19T03:14:29;15.40;99.90
25436;DHT22;13363;52.772;-3.890;2022-10-19T03:16:54;15.40;99.90
25436;DHT22;13363;52.772;-3.890;2022-10-19T03:19:20;15.40;99.90
25436;DHT22;13363;52.772;-3.890;2022-10-19T03:21:46;15.40;99.90
25436;DHT22;13363;52.772;-3.890;2022-10-19T03:24:12;15.40;99.90
25436;DHT22;13363;52.772;-3.890;2022-10-19T03:26:38;15.40;99.90
25436;DHT22;13363;52.772;-3.890;2022-10-19T03:29:03;15.30;99.90
25436;DHT22;13363;52.772;-3.890;2022-10-19T03:31:29;15.30;99.90
25436;DHT22;13363;52.772;-3.890;2022-10-19T03:33:55;15.30;99.90
25436;DHT22;13363;52.772;-3.890;2022-10-19T03:38:51;15.30;99.90
25436;DHT22;13363;52.772;-3.890;2022-10-19T03:41:18;15.30;99.90
25436;DHT22;13363;52.772;-3.890;2022-10-19T03:43:44;15.20;99.90
25436;DHT22;13363;52.772;-3.890;2022-10-19T03:46:10;15.20;99.90
25436;DHT22;13363;52.772;-3.890;2022-10-19T03:48:35;15.10;99.90
25436;DHT22;13363;52.772;-3.890;2022-10-19T03:51:05;15.10;99.90
25436;DHT22;13363;52.772;-3.890;2022-10-19T03:53:31;15.00;99.90
25436;DHT22;13363;52.772;-3.890;2022-10-19T03:56:18;14.90;99.90
25436;DHT22;13363;52.772;-3.890;2022-10-19T03:58:46;14.90;99.90
25436;DHT22;13363;52.772;-3.890;2022-10-19T04:01:17;14.80;99.90
25436;DHT22;13363;52.772;-3.890;2022-10-19T04:03:44;14.70;99.90
25436;DHT22;13363;52.772;-3.890;2022-10-19T04:06:13;14.70;99.90
25436;DHT22;13363;52.772;-3.890;2022-10-19T04:08:39;14.60;99.90
25436;DHT22;13363;52.772;-3.890;2022-10-19T04:11:09;14.50;99.90
25436;DHT22;13363;52.772;-3.890;2022-10-19T04:13:36;14.50;99.90
25436;DHT22;13363;52.772;-3.890;2022-10-19T04:16:02;14.50;99.90
25436;DHT22;13363;52.772;-3.890;2022-10-19T04:18:28;14.40;99.90
25436;DHT22;13363;52.772;-3.890;2022-10-19T04:20:57;14.50;99.90
25436;DHT22;13363;52.772;-3.890;2022-10-19T04:23:26;14.40;99.90
25436;DHT22;13363;52.772;-3.890;2022-10-19T04:25:57;14.40;99.90
25436;DHT22;13363;52.772;-3.890;2022-10-19T04:28:23;14.40;99.90
25436;DHT22;13363;52.772;-3.890;2022-10-19T04:30:49;14.50;99.90
25436;DHT22;13363;52.772;-3.890;2022-10-19T04:33:15;14.50;99.90
25436;DHT22;13363;52.772;-3.890;2022-10-19T04:35:40;14.40;99.90
25436;DHT22;13363;52.772;-3.890;2022-10-19T04:38:06;14.50;99.90
25436;DHT22;13363;52.772;-3.890;2022-10-19T04:40:34;14.40;99.90
25436;DHT22;13363;52.772;-3.890;2022-10-19T04:43:01;14.40;99.90
25436;DHT22;13363;52.772;-3.890;2022-10-19T04:45:27;14.40;99.90
25436;DHT22;13363;52.772;-3.890;2022-10-19T04:47:53;14.50;99.90
25436;DHT22;13363;52.772;-3.890;2022-10-19T04:50:22;14.40;99.90
25436;DHT22;13363;52.772;-3.890;2022-10-19T04:52:47;14.40;99.90
25436;DHT22;13363;52.772;-3.890;2022-10-19T04:55:13;14.50;99.90
25436;DHT22;13363;52.772;-3.890;2022-10-19T04:57:39;14.50;99.90
25436;DHT22;13363;52.772;-3.890;2022-10-19T05:00:05;14.50;99.90
25436;DHT22;13363;52.772;-3.890;2022-10-19T05:02:31;14.40;99.90
25436;DHT22;13363;52.772;-3.890;2022-10-19T05:04:57;14.40;99.90
25436;DHT22;13363;52.772;-3.890;2022-10-19T05:07:23;14.40;99.90
25436;DHT22;13363;52.772;-3.890;2022-10-19T05:09:49;14.60;99.90
25436;DHT22;13363;52.772;-3.890;2022-10-19T05:12:15;14.60;99.90
25436;DHT22;13363;52.772;-3.890;2022-10-19T05:14:40;14.70;99.90
25436;DHT22;13363;52.772;-3.890;2022-10-19T05:17:06;14.60;99.90
25436;DHT22;13363;52.772;-3.890;2022-10-19T05:19:32;14.60;99.90
25436;DHT22;13363;52.772;-3.890;2022-10-19T05:21:58;14.70;99.90
25436;DHT22;13363;52.772;-3.890;2022-10-19T05:24:24;14.70;99.90
25436;DHT22;13363;52.772;-3.890;2022-10-19T05:26:49;14.70;99.90
25436;DHT22;13363;52.772;-3.890;2022-10-19T05:29:15;14.70;99.90
25436;DHT22;13363;52.772;-3.890;2022-10-19T05:31:41;14.70;99.90
25436;DHT22;13363;52.772;-3.890;2022-10-19T05:34:07;14.70;99.90
25436;DHT22;13363;52.772;-3.890;2022-10-19T05:36:37;14.70;99.90
25436;DHT22;13363;52.772;-3.890;2022-10-19T05:39:10;14.80;99.90
25436;DHT22;13363;52.772;-3.890;2022-10-19T05:41:37;14.70;99.90
25436;DHT22;13363;52.772;-3.890;2022-10-19T05:44:03;14.70;99.90
25436;DHT22;13363;52.772;-3.890;2022-10-19T05:46:31;14.70;99.90
25436;DHT22;13363;52.772;-3.890;2022-10-19T05:48:57;14.80;99.90
25436;DHT22;13363;52.772;-3.890;2022-10-19T05:51:25;14.80;99.90
25436;DHT22;13363;52.772;-3.890;2022-10-19T05:53:52;14.70;99.90
25436;DHT22;13363;52.772;-3.890;2022-10-19T05:56:21;14.80;99.90
25436;DHT22;13363;52.772;-3.890;2022-10-19T05:58:48;14.80;99.90
25436;DHT22;13363;52.772;-3.890;2022-10-19T06:01:14;14.80;99.90
25436;DHT22;13363;52.772;-3.890;2022-10-19T06:03:41;14.90;99.90
25436;DHT22;13363;52.772;-3.890;2022-10-19T06:06:08;14.90;99.90
25436;DHT22;13363;52.772;-3.890;2022-10-19T06:08:35;14.90;99.90
25436;DHT22;13363;52.772;-3.890;2022-10-19T06:13:37;14.90;99.90
25436;DHT22;13363;52.772;-3.890;2022-10-19T06:16:04;14.80;99.90
25436;DHT22;13363;52.772;-3.890;2022-10-19T06:18:30;15.00;99.90
25436;DHT22;13363;52.772;-3.890;2022-10-19T06:21:04;15.00;99.90
25436;DHT22;13363;52.772;-3.890;2022-10-19T06:23:32;15.00;99.90
25436;DHT22;13363;52.772;-3.890;2022-10-19T06:25:58;15.00;99.90
25436;DHT22;13363;52.772;-3.890;2022-10-19T06:28:24;14.90;99.90
25436;DHT22;13363;52.772;-3.890;2022-10-19T06:30:49;14.90;99.90
25436;DHT22;13363;52.772;-3.890;2022-10-19T06:33:15;14.90;99.90
25436;DHT22;13363;52.772;-3.890;2022-10-19T06:35:41;14.90;99.90
25436;DHT22;13363;52.772;-3.890;2022-10-19T06:38:08;14.80;99.90
25436;DHT22;13363;52.772;-3.890;2022-10-19T06:40:34;14.80;99.90
25436;DHT22;13363;52.772;-3.890;2022-10-19T06:43:00;14.80;99.90
25436;DHT22;13363;52.772;-3.890;2022-10-19T06:45:27;14.80;99.90
25436;DHT22;13363;52.772;-3.890;2022-10-19T06:47:52;14.80;99.90
25436;DHT22;13363;52.772;-3.890;2022-10-19T06:50:19;14.90;99.90
25436;DHT22;13363;52.772;-3.890;2022-10-19T06:52:45;14.80;99.90
25436;DHT22;13363;52.772;-3.890;2022-10-19T06:55:12;14.80;99.90
25436;DHT22;13363;52.772;-3.890;2022-10-19T06:57:37;14.80;99.90
25436;DHT22;13363;52.772;-3.890;2022-10-19T07:00:05;14.80;99.90
25436;DHT22;13363;52.772;-3.890;2022-10-19T07:02:31;14.80;99.90
25436;DHT22;13363;52.772;-3.890;2022-10-19T07:04:57;14.80;99.90
25436;DHT22;13363;52.772;-3.890;2022-10-19T07:07:23;14.80;99.90
25436;DHT22;13363;52.772;-3.890;2022-10-19T07:09:49;14.80;99.90
25436;DHT22;13363;52.772;-3.890;2022-10-19T07:12:15;14.90;99.90
25436;DHT22;13363;52.772;-3.890;2022-10-19T07:14:41;14.90;99.90
25436;DHT22;13363;52.772;-3.890;2022-10-19T07:17:08;14.90;99.90
25436;DHT22;13363;52.772;-3.890;2022-10-19T07:19:34;14.90;99.90
25436;DHT22;13363;52.772;-3.890;2022-10-19T07:22:00;14.90;99.90
25436;DHT22;13363;52.772;-3.890;2022-10-19T07:24:26;14.90;99.90
25436;DHT22;13363;52.772;-3.890;2022-10-19T07:26:52;14.90;99.90
25436;DHT22;13363;52.772;-3.890;2022-10-19T07:29:17;14.90;99.90
25436;DHT22;13363;52.772;-3.890;2022-10-19T07:31:43;14.90;99.90
25436;DHT22;13363;52.772;-3.890;2022-10-19T07:34:11;14.90;99.90
25436;DHT22;13363;52.772;-3.890;2022-10-19T07:39:05;14.90;99.90
25436;DHT22;13363;52.772;-3.890;2022-10-19T07:41:32;14.90;99.90
25436;DHT22;13363;52.772;-3.890;2022-10-19T07:44:00;15.00;99.90
25436;DHT22;13363;52.772;-3.890;2022-10-19T07:46:27;15.00;99.90
25436;DHT22;13363;52.772;-3.890;2022-10-19T07:48:54;15.00;99.90
25436;DHT22;13363;52.772;-3.890;2022-10-19T07:51:21;15.00;99.90
25436;DHT22;13363;52.772;-3.890;2022-10-19T07:53:47;15.10;99.90
25436;DHT22;13363;52.772;-3.890;2022-10-19T07:56:15;15.20;99.90
25436;DHT22;13363;52.772;-3.890;2022-10-19T07:58:41;15.20;99.90
25436;DHT22;13363;52.772;-3.890;2022-10-19T08:01:13;15.30;99.90
25436;DHT22;13363;52.772;-3.890;2022-10-19T08:03:40;15.30;99.90
25436;DHT22;13363;52.772;-3.890;2022-10-19T08:06:08;15.20;99.90
25436;DHT22;13363;52.772;-3.890;2022-10-19T08:08:35;15.20;99.90
25436;DHT22;13363;52.772;-3.890;2022-10-19T08:11:23;15.30;99.90
25436;DHT22;13363;52.772;-3.890;2022-10-19T08:13:49;15.30;99.90
25436;DHT22;13363;52.772;-3.890;2022-10-19T08:16:27;15.30;99.90
25436;DHT22;13363;52.772;-3.890;2022-10-19T08:19:00;15.30;99.90
25436;DHT22;13363;52.772;-3.890;2022-10-19T08:21:27;15.30;99.90
25436;DHT22;13363;52.772;-3.890;2022-10-19T08:23:54;15.30;99.90
25436;DHT22;13363;52.772;-3.890;2022-10-19T08:38:08;15.50;99.90
25436;DHT22;13363;52.772;-3.890;2022-10-19T08:40:34;15.60;99.90
25436;DHT22;13363;52.772;-3.890;2022-10-19T08:45:50;15.60;99.90
25436;DHT22;13363;52.772;-3.890;2022-10-19T08:48:26;15.60;99.90
25436;DHT22;13363;52.772;-3.890;2022-10-19T08:50:53;15.60;99.90
25436;DHT22;13363;52.772;-3.890;2022-10-19T08:53:39;15.60;99.90
25436;DHT22;13363;52.772;-3.890;2022-10-19T08:56:27;15.60;99.90
25436;DHT22;13363;52.772;-3.890;2022-10-19T09:01:24;15.60;99.90
25436;DHT22;13363;52.772;-3.890;2022-10-19T09:04:01;15.60;99.90
25436;DHT22;13363;52.772;-3.890;2022-10-19T09:06:30;15.70;99.90
25436;DHT22;13363;52.772;-3.890;2022-10-19T09:08:57;15.60;99.90
25436;DHT22;13363;52.772;-3.890;2022-10-19T09:11:29;15.60;99.90
25436;DHT22;13363;52.772;-3.890;2022-10-19T09:14:10;15.70;99.90
25436;DHT22;13363;52.772;-3.890;2022-10-19T09:16:38;15.60;99.90
25436;DHT22;13363;52.772;-3.890;2022-10-19T09:19:23;15.60;99.90
25436;DHT22;13363;52.772;-3.890;2022-10-19T09:21:56;15.70;99.90
25436;DHT22;13363;52.772;-3.890;2022-10-19T09:24:27;15.60;99.90
25436;DHT22;13363;52.772;-3.890;2022-10-19T09:26:56;15.60;99.90
25436;DHT22;13363;52.772;-3.890;2022-10-19T09:32:04;15.60;99.90
25436;DHT22;13363;52.772;-3.890;2022-10-19T09:34:38;15.60;99.90
25436;DHT22;13363;52.772;-3.890;2022-10-19T09:37:05;15.60;99.90
25436;DHT22;13363;52.772;-3.890;2022-10-19T09:39:31;15.60;99.90
25436;DHT22;13363;52.772;-3.890;2022-10-19T09:42:19;15.50;99.90
25436;DHT22;13363;52.772;-3.890;2022-10-19T09:44:47;15.60;99.90
25436;DHT22;13363;52.772;-3.890;2022-10-19T09:47:36;15.60;99.90
25436;DHT22;13363;52.772;-3.890;2022-10-19T09:50:22;15.60;99.90
25436;DHT22;13363;52.772;-3.890;2022-10-19T09:52:50;15.70;99.90
25436;DHT22;13363;52.772;-3.890;2022-10-19T09:55:38;15.70;99.90
25436;DHT22;13363;52.772;-3.890;2022-10-19T09:58:16;15.70;99.90
25436;DHT22;13363;52.772;-3.890;2022-10-19T10:00:50;15.80;99.90
25436;DHT22;13363;52.772;-3.890;2022-10-19T10:03:34;15.80;99.90
25436;DHT22;13363;52.772;-3.890;2022-10-19T10:06:11;15.90;99.90
25436;DHT22;13363;52.772;-3.890;2022-10-19T10:08:49;15.90;99.90
25436;DHT22;13363;52.772;-3.890;2022-10-19T10:11:26;15.90;99.90
25436;DHT22;13363;52.772;-3.890;2022-10-19T10:13:53;15.90;99.90
25436;DHT22;13363;52.772;-3.890;2022-10-19T10:16:23;16.00;99.90
25436;DHT22;13363;52.772;-3.890;2022-10-19T10:19:10;16.00;99.90
25436;DHT22;13363;52.772;-3.890;2022-10-19T10:21:49;16.00;99.90
25436;DHT22;13363;52.772;-3.890;2022-10-19T10:24:18;16.00;99.90
25436;DHT22;13363;52.772;-3.890;2022-10-19T10:26:49;16.00;99.90
25436;DHT22;13363;52.772;-3.890;2022-10-19T10:31:56;16.10;99.90
25436;DHT22;13363;52.772;-3.890;2022-10-19T10:34:37;16.10;99.90
25436;DHT22;13363;52.772;-3.890;2022-10-19T10:37:06;16.10;99.90
25436;DHT22;13363;52.772;-3.890;2022-10-19T10:39:39;16.00;99.90
25436;DHT22;13363;52.772;-3.890;2022-10-19T10:42:14;16.10;99.90
25436;DHT22;13363;52.772;-3.890;2022-10-19T10:44:47;16.00;99.90
25436;DHT22;13363;52.772;-3.890;2022-10-19T10:47:16;16.10;99.90
25436;DHT22;13363;52.772;-3.890;2022-10-19T10:49:43;16.10;99.90
25436;DHT22;13363;52.772;-3.890;2022-10-19T10:52:18;16.10;99.90
25436;DHT22;13363;52.772;-3.890;2022-10-19T10:55:14;16.10;99.90
25436;DHT22;13363;52.772;-3.890;2022-10-19T10:57:45;16.10;99.90
25436;DHT22;13363;52.772;-3.890;2022-10-19T11:00:19;16.10;99.90
25436;DHT22;13363;52.772;-3.890;2022-10-19T11:05:41;16.10;99.90
25436;DHT22;13363;52.772;-3.890;2022-10-19T11:15:53;16.40;99.90
25436;DHT22;13363;52.772;-3.890;2022-10-19T11:21:14;16.70;99.90
25436;DHT22;13363;52.772;-3.890;2022-10-19T11:29:30;17.60;99.90
25436;DHT22;13363;52.772;-3.890;2022-10-19T11:31:59;18.00;99.90
25436;DHT22;13363;52.772;-3.890;2022-10-19T11:34:58;18.60;99.90
25436;DHT22;13363;52.772;-3.890;2022-10-19T11:52:21;19.90;99.90
25436;DHT22;13363;52.772;-3.890;2022-10-19T12:11:43;19.50;99.90
25436;DHT22;13363;52.772;-3.890;2022-10-19T12:14:17;19.50;99.90
25436;DHT22;13363;52.772;-3.890;2022-10-19T12:16:49;19.50;99.90
25436;DHT22;13363;52.772;-3.890;2022-10-19T12:19:20;19.40;99.90
25436;DHT22;13363;52.772;-3.890;2022-10-19T12:21:47;19.40;99.90
25436;DHT22;13363;52.772;-3.890;2022-10-19T12:24:23;19.30;99.90
25436;DHT22;13363;52.772;-3.890;2022-10-19T12:26:51;19.30;99.90
25436;DHT22;13363;52.772;-3.890;2022-10-19T12:29:31;19.20;99.90
25436;DHT22;13363;52.772;-3.890;2022-10-19T12:31:58;19.30;99.90
25436;DHT22;13363;52.772;-3.890;2022-10-19T12:34:57;19.20;99.90
25436;DHT22;13363;52.772;-3.890;2022-10-19T12:37:39;19.20;99.90
25436;DHT22;13363;52.772;-3.890;2022-10-19T12:40:23;18.90;99.90
25436;DHT22;13363;52.772;-3.890;2022-10-19T12:51:05;18.20;99.90
25436;DHT22;13363;52.772;-3.890;2022-10-19T12:53:35;18.40;99.90
25436;DHT22;13363;52.772;-3.890;2022-10-19T12:56:22;18.60;99.90
25436;DHT22;13363;52.772;-3.890;2022-10-19T12:58:54;18.40;99.90
25436;DHT22;13363;52.772;-3.890;2022-10-19T13:01:41;18.50;99.90
25436;DHT22;13363;52.772;-3.890;2022-10-19T13:04:27;18.70;99.90
25436;DHT22;13363;52.772;-3.890;2022-10-19T13:09:35;18.60;99.90
25436;DHT22;13363;52.772;-3.890;2022-10-19T13:25:32;18.40;99.90
25436;DHT22;13363;52.772;-3.890;2022-10-19T13:41:44;17.80;99.90
25436;DHT22;13363;52.772;-3.890;2022-10-19T14:12:24;17.50;99.90
25436;DHT22;13363;52.772;-3.890;2022-10-19T14:14:50;17.50;99.90
25436;DHT22;13363;52.772;-3.890;2022-10-19T14:17:23;17.40;99.90
25436;DHT22;13363;52.772;-3.890;2022-10-19T14:19:53;17.50;99.90
25436;DHT22;13363;52.772;-3.890;2022-10-19T14:24:50;17.70;99.90
25436;DHT22;13363;52.772;-3.890;2022-10-19T14:27:21;17.90;99.90
25436;DHT22;13363;52.772;-3.890;2022-10-19T14:29:50;18.00;99.90
25436;DHT22;13363;52.772;-3.890;2022-10-19T14:32:20;18.10;99.90
25436;DHT22;13363;52.772;-3.890;2022-10-19T14:34:48;18.30;99.90
25436;DHT22;13363;52.772;-3.890;2022-10-19T14:37:23;18.30;99.90
25436;DHT22;13363;52.772;-3.890;2022-10-19T14:42:39;18.40;99.90
25436;DHT22;13363;52.772;-3.890;2022-10-19T14:45:13;18.50;99.90
25436;DHT22;13363;52.772;-3.890;2022-10-19T14:48:16;18.40;99.90
25436;DHT22;13363;52.772;-3.890;2022-10-19T14:50:46;17.90;99.90
25436;DHT22;13363;52.772;-3.890;2022-10-19T14:53:30;17.90;99.90
25436;DHT22;13363;52.772;-3.890;2022-10-19T14:56:05;18.00;99.90
25436;DHT22;13363;52.772;-3.890;2022-10-19T14:58:38;18.00;99.90
25436;DHT22;13363;52.772;-3.890;2022-10-19T15:01:05;17.90;99.90
25436;DHT22;13363;52.772;-3.890;2022-10-19T15:03:32;17.90;99.90
25436;DHT22;13363;52.772;-3.890;2022-10-19T15:06:02;17.70;99.90
25436;DHT22;13363;52.772;-3.890;2022-10-19T15:11:02;17.80;99.90
25436;DHT22;13363;52.772;-3.890;2022-10-19T15:13:36;17.80;99.90
25436;DHT22;13363;52.772;-3.890;2022-10-19T15:16:04;17.90;99.90
25436;DHT22;13363;52.772;-3.890;2022-10-19T15:18:36;17.90;99.90
25436;DHT22;13363;52.772;-3.890;2022-10-19T15:21:23;17.90;99.90
25436;DHT22;13363;52.772;-3.890;2022-10-19T15:23:50;17.90;99.90
25436;DHT22;13363;52.772;-3.890;2022-10-19T15:26:28;17.80;99.90
25436;DHT22;13363;52.772;-3.890;2022-10-19T15:29:07;17.60;99.90
25436;DHT22;13363;52.772;-3.890;2022-10-19T15:31:33;17.50;99.90
25436;DHT22;13363;52.772;-3.890;2022-10-19T15:34:00;17.50;99.90
25436;DHT22;13363;52.772;-3.890;2022-10-19T15:36:29;17.50;99.90
25436;DHT22;13363;52.772;-3.890;2022-10-19T15:39:03;17.50;99.90
25436;DHT22;13363;52.772;-3.890;2022-10-19T15:41:37;17.50;99.90
25436;DHT22;13363;52.772;-3.890;2022-10-19T15:44:04;17.50;99.90
25436;DHT22;13363;52.772;-3.890;2022-10-19T15:51:48;17.30;99.90
25436;DHT22;13363;52.772;-3.890;2022-10-19T15:54:16;17.30;99.90
25436;DHT22;13363;52.772;-3.890;2022-10-19T15:56:50;17.20;99.90
25436;DHT22;13363;52.772;-3.890;2022-10-19T15:59:20;17.30;99.90
25436;DHT22;13363;52.772;-3.890;2022-10-19T16:01:48;17.20;99.90
25436;DHT22;13363;52.772;-3.890;2022-10-19T16:04:15;17.20;99.90
25436;DHT22;13363;52.772;-3.890;2022-10-19T16:06:43;17.10;99.90
25436;DHT22;13363;52.772;-3.890;2022-10-19T16:09:17;17.10;99.90
25436;DHT22;13363;52.772;-3.890;2022-10-19T16:11:43;17.10;99.90
25436;DHT22;13363;52.772;-3.890;2022-10-19T16:14:09;17.00;99.90
25436;DHT22;13363;52.772;-3.890;2022-10-19T16:16:35;17.00;99.90
25436;DHT22;13363;52.772;-3.890;2022-10-19T16:19:01;17.00;99.90
25436;DHT22;13363;52.772;-3.890;2022-10-19T16:21:30;17.00;99.90
25436;DHT22;13363;52.772;-3.890;2022-10-19T16:23:56;17.00;99.90
25436;DHT22;13363;52.772;-3.890;2022-10-19T16:26:22;17.00;99.90
25436;DHT22;13363;52.772;-3.890;2022-10-19T16:28:51;17.00;99.90
25436;DHT22;13363;52.772;-3.890;2022-10-19T16:31:17;17.00;99.90
25436;DHT22;13363;52.772;-3.890;2022-10-19T16:33:43;16.90;99.90
25436;DHT22;13363;52.772;-3.890;2022-10-19T16:36:09;16.90;99.90
25436;DHT22;13363;52.772;-3.890;2022-10-19T16:38:35;16.90;99.90
25436;DHT22;13363;52.772;-3.890;2022-10-19T16:41:04;16.90;99.90
25436;DHT22;13363;52.772;-3.890;2022-10-19T16:43:31;16.90;99.90
25436;DHT22;13363;52.772;-3.890;2022-10-19T16:45:57;16.90;99.90
25436;DHT22;13363;52.772;-3.890;2022-10-19T16:48:23;16.90;99.90
25436;DHT22;13363;52.772;-3.890;2022-10-19T16:53:30;16.80;99.90
25436;DHT22;13363;52.772;-3.890;2022-10-19T16:56:03;16.80;99.90
25436;DHT22;13363;52.772;-3.890;2022-10-19T16:58:30;16.80;99.90
25436;DHT22;13363;52.772;-3.890;2022-10-19T17:00:55;16.80;99.90
25436;DHT22;13363;52.772;-3.890;2022-10-19T17:03:27;16.70;99.90
25436;DHT22;13363;52.772;-3.890;2022-10-19T17:05:53;16.70;99.90
25436;DHT22;13363;52.772;-3.890;2022-10-19T17:08:19;16.60;99.90
25436;DHT22;13363;52.772;-3.890;2022-10-19T17:10:44;16.60;99.90
25436;DHT22;13363;52.772;-3.890;2022-10-19T17:13:11;16.60;99.90
25436;DHT22;13363;52.772;-3.890;2022-10-19T17:15:37;16.60;99.90
25436;DHT22;13363;52.772;-3.890;2022-10-19T17:18:03;16.50;99.90
25436;DHT22;13363;52.772;-3.890;2022-10-19T17:20:31;16.50;99.90
25436;DHT22;13363;52.772;-3.890;2022-10-19T17:22:58;16.50;99.90
25436;DHT22;13363;52.772;-3.890;2022-10-19T17:25:25;16.50;99.90
25436;DHT22;13363;52.772;-3.890;2022-10-19T17:27:51;16.40;99.90
25436;DHT22;13363;52.772;-3.890;2022-10-19T17:30:17;16.40;99.90
25436;DHT22;13363;52.772;-3.890;2022-10-19T17:32:43;16.40;99.90
25436;DHT22;13363;52.772;-3.890;2022-10-19T17:35:09;16.40;99.90
25436;DHT22;13363;52.772;-3.890;2022-10-19T17:37:35;16.30;99.90
25436;DHT22;13363;52.772;-3.890;2022-10-19T17:40:01;16.30;99.90
25436;DHT22;13363;52.772;-3.890;2022-10-19T17:42:26;16.20;99.90
25436;DHT22;13363;52.772;-3.890;2022-10-19T17:44:53;16.10;99.90
25436;DHT22;13363;52.772;-3.890;2022-10-19T17:47:19;16.10;99.90
25436;DHT22;13363;52.772;-3.890;2022-10-19T17:49:45;16.10;99.90
25436;DHT22;13363;52.772;-3.890;2022-10-19T17:52:10;16.10;99.90
25436;DHT22;13363;52.772;-3.890;2022-10-19T17:54:39;16.10;99.90
25436;DHT22;13363;52.772;-3.890;2022-10-19T17:57:05;16.10;99.90
25436;DHT22;13363;52.772;-3.890;2022-10-19T17:59:31;16.10;99.90
25436;DHT22;13363;52.772;-3.890;2022-10-19T18:01:56;16.10;99.90
25436;DHT22;13363;52.772;-3.890;2022-10-19T18:04:22;16.10;99.90
25436;DHT22;13363;52.772;-3.890;2022-10-19T18:06:48;16.00;99.90
25436;DHT22;13363;52.772;-3.890;2022-10-19T18:09:14;16.00;99.90
25436;DHT22;13363;52.772;-3.890;2022-10-19T18:11:42;16.00;99.90
25436;DHT22;13363;52.772;-3.890;2022-10-19T18:14:09;16.00;99.90
25436;DHT22;13363;52.772;-3.890;2022-10-19T18:16:38;16.00;99.90
25436;DHT22;13363;52.772;-3.890;2022-10-19T18:19:06;16.00;99.90
25436;DHT22;13363;52.772;-3.890;2022-10-19T18:21:39;16.00;99.90
25436;DHT22;13363;52.772;-3.890;2022-10-19T18:24:09;15.90;99.90
25436;DHT22;13363;52.772;-3.890;2022-10-19T18:26:35;15.90;99.90
25436;DHT22;13363;52.772;-3.890;2022-10-19T18:29:10;15.80;99.90
25436;DHT22;13363;52.772;-3.890;2022-10-19T18:31:38;15.80;99.90
25436;DHT22;13363;52.772;-3.890;2022-10-19T18:34:05;15.90;99.90
25436;DHT22;13363;52.772;-3.890;2022-10-19T18:36:32;15.90;99.90
25436;DHT22;13363;52.772;-3.890;2022-10-19T18:39:00;15.80;99.90